Terminal Aerodrome Forecast
Issued by NWS Flagstaff, AZ

Home | Current Version | Previous Version | Text Only | Print | Product List | Glossary On
Versions: 1 2 3 4 5 6 7 8 9 10 11 12 13 14 15 16 17
000
FTUS45 KFGZ 310843 AAA
TAFINW
TAF AMD
KINW 310843Z 3109/0106 VRB06KT P6SM VCTS SCT080CB BKN100
      TEMPO 3109/3110 VRB14G23KT 4SM TSRA BKN070CB
     FM311000 20006KT P6SM SCT090 SCT140
     FM311900 24009KT P6SM SCT080 PROB30 3120/0102 -TSRA BKN060CB
     FM010300 VRB05KT P6SM FEW080=

USA.gov is the U.S. government's official web portal to all federal, state and local government web resources and services.